createdAt,value
2022-09-04T00:00:14.052Z,2.17
2022-09-04T00:03:18.721Z,2.10
2022-09-04T00:05:51.903Z,1.90
2022-09-04T00:08:39.767Z,1.90
2022-09-04T00:11:16.777Z,1.70
2022-09-04T00:13:49.786Z,1.70
2022-09-04T00:16:23.208Z,1.80
2022-09-04T00:18:59.656Z,1.53
2022-09-04T00:21:35.882Z,1.77
2022-09-04T00:24:07.973Z,2.20
2022-09-04T00:26:48.884Z,1.60
2022-09-04T00:29:28.635Z,1.90
2022-09-04T00:32:03.510Z,2.07
2022-09-04T00:34:52.548Z,2.00
2022-09-04T00:37:27.458Z,2.17
2022-09-04T00:43:28.130Z,1.93
2022-09-04T00:46:19.479Z,1.90
2022-09-04T00:49:36.521Z,2.10
2022-09-04T00:52:21.285Z,1.80
2022-09-04T00:55:17.742Z,2.10
2022-09-04T00:58:10.794Z,2.20
2022-09-04T01:00:40.324Z,1.73
2022-09-04T01:03:36.436Z,2.13
2022-09-04T01:06:30.550Z,2.00
2022-09-04T01:09:38.791Z,1.93
2022-09-04T01:12:20.890Z,1.93
2022-09-04T01:14:57.178Z,1.90
2022-09-04T01:17:33.188Z,2.10
2022-09-04T01:20:13.364Z,2.10
2022-09-04T01:23:13.503Z,1.83
2022-09-04T01:26:09.086Z,2.10
2022-09-04T01:28:51.581Z,2.20
2022-09-04T01:31:28.184Z,1.97
2022-09-04T01:34:14.480Z,2.20
2022-09-04T01:36:50.646Z,1.70
2022-09-04T01:39:22.597Z,1.70
2022-09-04T01:42:00.963Z,1.93
2022-09-04T01:44:31.038Z,1.77
2022-09-04T01:47:11.815Z,1.73
2022-09-04T01:49:45.561Z,2.00
2022-09-04T01:52:37.849Z,1.83
2022-09-04T01:55:20.167Z,2.10
2022-09-04T01:58:05.374Z,2.10
2022-09-04T02:00:39.743Z,2.23
2022-09-04T02:03:22.126Z,2.07
2022-09-04T02:06:03.827Z,2.07
2022-09-04T02:08:50.862Z,2.10
2022-09-04T02:11:27.813Z,2.40
2022-09-04T02:14:17.827Z,2.20
2022-09-04T02:17:08.532Z,2.30
2022-09-04T02:19:54.522Z,2.00
2022-09-04T02:22:31.986Z,1.90
2022-09-04T02:25:07.554Z,2.13
2022-09-04T02:27:46.926Z,1.93
2022-09-04T02:30:19.557Z,2.03
2022-09-04T02:32:57.866Z,2.23
2022-09-04T02:35:36.780Z,1.97
2022-09-04T02:38:18.407Z,1.90
2022-09-04T02:40:53.268Z,2.20
2022-09-04T02:43:48.767Z,2.10
2022-09-04T02:46:28.975Z,2.10
2022-09-04T02:49:10.078Z,1.80
2022-09-04T02:51:55.795Z,2.30
2022-09-04T02:54:43.454Z,2.23
2022-09-04T02:57:27.355Z,2.00
2022-09-04T03:00:08.286Z,1.67
2022-09-04T03:02:46.482Z,1.80
2022-09-04T03:05:22.525Z,1.80
2022-09-04T03:07:59.933Z,1.80
2022-09-04T03:10:35.063Z,1.93
2022-09-04T03:13:09.968Z,2.20
2022-09-04T03:15:45.306Z,1.80
2022-09-04T03:18:30.166Z,2.07
2022-09-04T03:21:06.385Z,1.90
2022-09-04T03:23:44.442Z,2.20
2022-09-04T03:26:22.762Z,2.10
2022-09-04T03:29:02.289Z,2.13
2022-09-04T03:31:37.384Z,1.87
2022-09-04T03:34:30.797Z,2.30
2022-09-04T03:37:22.534Z,2.10
2022-09-04T03:40:05.551Z,2.20
2022-09-04T03:42:49.254Z,2.10
2022-09-04T03:45:29.232Z,1.60
2022-09-04T03:48:16.717Z,2.60
2022-09-04T03:50:54.349Z,2.60
2022-09-04T03:53:33.605Z,2.30
2022-09-04T03:56:30.327Z,2.73
2022-09-04T03:59:05.547Z,2.40
2022-09-04T04:01:48.527Z,2.30
2022-09-04T04:04:48.085Z,2.53
2022-09-04T04:07:30.349Z,2.37
2022-09-04T04:10:15.197Z,2.00
2022-09-04T04:13:05.393Z,1.60
2022-09-04T04:15:52.323Z,1.60
2022-09-04T04:18:39.624Z,1.50
2022-09-04T04:21:16.507Z,1.50
2022-09-04T04:24:05.283Z,1.67
2022-09-04T04:26:54.904Z,1.70
2022-09-04T04:30:08.102Z,1.73
2022-09-04T04:33:19.439Z,1.60
2022-09-04T04:35:58.372Z,1.50
2022-09-04T04:38:46.188Z,1.60
2022-09-04T04:41:54.459Z,1.60
2022-09-04T04:44:53.423Z,1.53
2022-09-04T04:47:41.181Z,1.67
2022-09-04T04:50:17.414Z,1.70
2022-09-04T04:53:01.763Z,1.90
2022-09-04T04:55:40.752Z,2.10
2022-09-04T04:58:38.106Z,1.80
2022-09-04T05:01:16.025Z,2.00
2022-09-04T05:04:05.102Z,1.80
2022-09-04T05:06:42.421Z,1.80
2022-09-04T05:09:21.271Z,1.73
2022-09-04T05:11:57.937Z,1.70
2022-09-04T05:14:39.065Z,1.87
2022-09-04T05:17:19.664Z,1.70
2022-09-04T05:20:10.995Z,1.70
2022-09-04T05:22:45.348Z,1.80
2022-09-04T05:25:22.503Z,1.80
2022-09-04T05:28:02.949Z,1.93
2022-09-04T05:30:44.116Z,1.80
2022-09-04T05:33:23.646Z,2.00
2022-09-04T05:36:01.099Z,2.10
2022-09-04T05:38:37.267Z,2.00
2022-09-04T05:41:08.683Z,2.40
2022-09-04T05:44:02.014Z,2.13
2022-09-04T05:46:51.798Z,1.87
2022-09-04T05:49:42.679Z,2.00
2022-09-04T05:52:48.960Z,1.83
2022-09-04T05:55:43.671Z,1.90
2022-09-04T05:58:35.228Z,2.30
2022-09-04T06:01:20.583Z,2.43
2022-09-04T06:04:24.682Z,2.20
2022-09-04T06:07:04.741Z,2.23
2022-09-04T06:09:54.895Z,2.57
2022-09-04T06:13:08.295Z,2.90
2022-09-04T06:15:44.764Z,2.70
2022-09-04T06:18:36.162Z,3.00
2022-09-04T06:21:55.257Z,2.73
2022-09-04T06:24:39.661Z,2.90
2022-09-04T06:27:35.526Z,2.83
2022-09-04T06:30:08.785Z,2.73
2022-09-04T06:33:04.124Z,2.50
2022-09-04T06:36:05.641Z,2.53
2022-09-04T06:38:50.891Z,2.33
2022-09-04T06:41:55.558Z,2.87
2022-09-04T06:44:41.233Z,3.25
2022-09-04T06:47:25.526Z,2.88
2022-09-04T06:50:13.769Z,3.22
2022-09-04T06:53:00.007Z,2.90
2022-09-04T06:55:42.563Z,3.40
2022-09-04T06:58:45.678Z,3.00
2022-09-04T07:01:21.097Z,4.13
2022-09-04T07:04:07.359Z,3.08
2022-09-04T07:07:00.251Z,2.90
2022-09-04T07:09:34.727Z,3.33
2022-09-04T07:12:36.282Z,3.08
2022-09-04T07:15:44.717Z,3.03
2022-09-04T07:18:32.951Z,3.20
2022-09-04T07:21:11.079Z,2.70
2022-09-04T07:23:50.085Z,3.30
2022-09-04T07:26:28.347Z,3.17
2022-09-04T07:29:16.140Z,2.65
2022-09-04T07:31:51.713Z,2.55
2022-09-04T07:34:27.830Z,3.08
2022-09-04T07:37:04.175Z,2.72
2022-09-04T07:39:39.117Z,2.95
2022-09-04T07:42:15.066Z,2.80
2022-09-04T07:44:59.728Z,2.53
2022-09-04T07:47:38.010Z,2.75
2022-09-04T07:50:13.791Z,2.58
2022-09-04T07:53:07.325Z,2.47
2022-09-04T07:55:42.181Z,2.60
2022-09-04T07:58:49.419Z,2.50
2022-09-04T08:01:40.485Z,2.15
2022-09-04T08:04:33.161Z,2.60
2022-09-04T08:07:11.294Z,2.30
2022-09-04T08:10:05.475Z,2.40
2022-09-04T08:13:09.872Z,2.55
2022-09-04T08:15:46.463Z,2.70
2022-09-04T08:18:43.165Z,2.30
2022-09-04T08:21:23.474Z,1.90
2022-09-04T08:24:29.273Z,2.10
2022-09-04T08:27:11.166Z,1.90
2022-09-04T08:29:54.834Z,2.15
2022-09-04T08:32:46.842Z,2.35
2022-09-04T08:35:25.747Z,2.40
2022-09-04T08:38:27.812Z,1.80
2022-09-04T08:41:34.542Z,1.90
2022-09-04T08:45:08.090Z,1.90
2022-09-04T08:48:21.080Z,1.60
2022-09-04T08:51:34.193Z,1.95
2022-09-04T08:54:37.602Z,2.00
2022-09-04T08:57:58.359Z,1.92
2022-09-04T09:00:44.683Z,1.83
2022-09-04T09:03:42.266Z,2.00
2022-09-04T09:06:57.380Z,1.77
2022-09-04T09:10:03.606Z,1.80
2022-09-04T09:13:19.287Z,2.00
2022-09-04T09:16:07.397Z,1.58
2022-09-04T09:18:40.573Z,2.03
2022-09-04T09:21:13.638Z,2.35
2022-09-04T09:24:10.887Z,1.70
2022-09-04T09:26:51.084Z,1.52
2022-09-04T09:30:06.196Z,2.00
2022-09-04T09:33:20.543Z,1.70
2022-09-04T09:36:46.587Z,1.58
2022-09-04T09:39:58.833Z,1.40
2022-09-04T09:43:01.139Z,1.50
2022-09-04T09:46:19.688Z,1.30
2022-09-04T09:49:43.154Z,1.60
2022-09-04T09:53:14.359Z,1.80
2022-09-04T09:56:21.728Z,1.50
2022-09-04T09:59:38.049Z,1.65
2022-09-04T10:02:54.737Z,1.58
2022-09-04T10:06:14.093Z,1.70
2022-09-04T10:09:29.438Z,1.30
2022-09-04T10:12:41.442Z,1.20
2022-09-04T10:15:48.371Z,1.33
2022-09-04T10:19:07.047Z,1.40
2022-09-04T10:22:36.766Z,1.42
2022-09-04T10:25:44.398Z,1.00
2022-09-04T10:28:47.406Z,1.17
2022-09-04T10:31:56.989Z,1.30
2022-09-04T10:35:20.851Z,1.38
2022-09-04T10:38:26.717Z,2.03
2022-09-04T10:41:39.178Z,1.38
2022-09-04T10:44:51.513Z,1.30
2022-09-04T10:47:45.044Z,1.50
2022-09-04T10:50:28.772Z,1.30
2022-09-04T10:53:51.402Z,1.50
2022-09-04T10:56:28.950Z,1.63
2022-09-04T10:59:21.226Z,1.40
2022-09-04T11:02:14.092Z,1.45
2022-09-04T11:05:15.660Z,1.23
2022-09-04T11:08:20.711Z,1.23
2022-09-04T11:11:15.241Z,1.25
2022-09-04T11:14:25.658Z,1.52
2022-09-04T11:17:35.977Z,1.80
2022-09-04T11:20:58.472Z,1.58
2022-09-04T11:24:28.041Z,1.75
2022-09-04T11:27:39.937Z,1.70
2022-09-04T11:30:15.672Z,1.50
2022-09-04T11:33:25.369Z,1.60
2022-09-04T11:36:35.429Z,1.33
2022-09-04T11:39:47.737Z,1.60
2022-09-04T11:42:31.122Z,1.50
2022-09-04T11:45:57.717Z,1.60
2022-09-04T11:48:58.104Z,1.65
2022-09-04T11:52:05.034Z,1.63
2022-09-04T11:55:16.896Z,1.60
2022-09-04T11:58:17.541Z,1.40
2022-09-04T12:00:58.432Z,1.42
2022-09-04T12:04:00.811Z,1.30
2022-09-04T12:06:51.149Z,1.30
2022-09-04T12:09:52.751Z,1.40
2022-09-04T12:12:57.919Z,1.33
2022-09-04T12:15:55.717Z,1.20
2022-09-04T12:18:59.820Z,1.50
2022-09-04T12:21:53.057Z,1.30
2022-09-04T12:24:46.273Z,1.30
2022-09-04T12:27:48.073Z,1.20
2022-09-04T12:30:23.652Z,1.08
2022-09-04T12:33:24.904Z,1.10
2022-09-04T12:36:37.274Z,1.40
2022-09-04T12:39:55.184Z,1.30
2022-09-04T12:42:30.133Z,1.20
2022-09-04T12:45:13.939Z,1.27
2022-09-04T12:47:57.208Z,1.20
2022-09-04T12:50:34.508Z,1.40
2022-09-04T12:53:52.465Z,1.33
2022-09-04T12:56:43.930Z,1.30
2022-09-04T12:59:36.889Z,1.20
2022-09-04T13:02:16.446Z,1.30
2022-09-04T13:04:55.732Z,1.15
2022-09-04T13:07:44.407Z,1.33
2022-09-04T13:10:26.975Z,1.40
2022-09-04T13:13:08.135Z,1.00
2022-09-04T13:15:48.546Z,1.40
2022-09-04T13:18:34.993Z,1.42
2022-09-04T13:21:15.874Z,1.25
2022-09-04T13:24:06.600Z,1.45
2022-09-04T13:27:04.639Z,1.15
2022-09-04T13:29:51.493Z,1.20
2022-09-04T13:32:46.436Z,1.40
2022-09-04T13:35:25.475Z,1.45
2022-09-04T13:38:27.554Z,1.15
2022-09-04T13:41:30.914Z,1.20
2022-09-04T13:44:25.754Z,1.08
2022-09-04T13:47:05.789Z,1.20
2022-09-04T13:49:40.064Z,1.00
2022-09-04T13:52:16.122Z,1.10
2022-09-04T13:54:52.687Z,1.20
2022-09-04T13:57:25.937Z,1.13
2022-09-04T13:59:59.249Z,1.20
2022-09-04T14:02:31.859Z,1.00
2022-09-04T14:05:17.168Z,1.27
2022-09-04T14:07:50.427Z,1.30
2022-09-04T14:10:23.473Z,1.38
2022-09-04T14:13:15.533Z,1.23
2022-09-04T14:16:04.363Z,1.10
2022-09-04T14:19:03.449Z,1.10
2022-09-04T14:21:49.558Z,1.08
2022-09-04T14:24:25.604Z,1.17
2022-09-04T14:27:07.015Z,1.17
2022-09-04T14:29:48.291Z,1.30
2022-09-04T14:32:25.366Z,1.10
2022-09-04T14:35:03.935Z,1.20
2022-09-04T14:38:02.513Z,1.15
2022-09-04T14:40:34.617Z,1.20
2022-09-04T14:43:13.285Z,1.05
2022-09-04T14:46:04.792Z,1.10
2022-09-04T14:48:40.439Z,1.30
2022-09-04T14:51:18.610Z,1.23
2022-09-04T14:53:50.138Z,1.10
2022-09-04T14:56:30.770Z,1.08
2022-09-04T14:59:08.667Z,1.10
2022-09-04T15:01:56.919Z,1.15
2022-09-04T15:04:33.692Z,1.25
2022-09-04T15:07:49.529Z,1.00
2022-09-04T15:10:25.879Z,1.15
2022-09-04T15:13:23.573Z,1.00
2022-09-04T15:15:56.502Z,1.27
2022-09-04T15:18:31.442Z,1.13
2022-09-04T15:21:05.052Z,1.08
2022-09-04T15:23:42.530Z,1.20
2022-09-04T15:26:19.914Z,1.00
2022-09-04T15:28:52.599Z,1.10
2022-09-04T15:31:30.603Z,0.98
2022-09-04T15:34:03.886Z,1.23
2022-09-04T15:36:32.817Z,1.00
2022-09-04T15:39:06.096Z,1.02
2022-09-04T15:41:42.098Z,0.90
2022-09-04T15:44:20.499Z,1.00
2022-09-04T15:47:02.897Z,1.00
2022-09-04T15:49:44.969Z,1.00
2022-09-04T15:52:33.355Z,1.00
2022-09-04T15:55:10.882Z,0.90
2022-09-04T15:57:56.043Z,1.13
2022-09-04T16:00:27.328Z,1.17
2022-09-04T16:03:06.972Z,1.45
2022-09-04T16:05:45.087Z,1.13
2022-09-04T16:08:23.492Z,1.27
2022-09-04T16:10:59.787Z,0.90
2022-09-04T16:13:46.548Z,1.20
2022-09-04T16:16:22.045Z,1.20
2022-09-04T16:19:03.232Z,1.45
2022-09-04T16:21:44.480Z,1.52
2022-09-04T16:24:17.999Z,1.63
2022-09-04T16:26:52.051Z,1.13
2022-09-04T16:29:36.682Z,1.23
2022-09-04T16:32:09.715Z,1.42
2022-09-04T16:34:47.964Z,1.35
2022-09-04T16:37:23.081Z,1.20
2022-09-04T16:40:04.981Z,1.45
2022-09-04T16:42:42.896Z,1.10
2022-09-04T16:45:18.233Z,1.13
2022-09-04T16:47:54.481Z,1.25
2022-09-04T16:50:28.449Z,1.50
2022-09-04T16:53:14.455Z,1.70
2022-09-04T16:55:53.761Z,2.85
2022-09-04T16:58:40.112Z,3.15
2022-09-04T17:01:17.284Z,2.67
2022-09-04T17:04:12.569Z,2.17
2022-09-04T17:07:00.094Z,2.30
2022-09-04T17:09:47.773Z,2.47
2022-09-04T17:12:26.293Z,2.53
2022-09-04T17:15:03.164Z,2.38
2022-09-04T17:17:33.987Z,3.05
2022-09-04T17:20:06.451Z,2.40
2022-09-04T17:28:54.266Z,1.73
2022-09-04T17:29:19.054Z,1.65
2022-09-04T17:29:29.518Z,2.08
2022-09-04T17:31:51.218Z,2.10
2022-09-04T17:40:35.700Z,2.50
2022-09-04T17:40:56.290Z,2.55
2022-09-04T17:41:40.285Z,2.13
2022-09-04T17:43:59.699Z,1.88
2022-09-04T17:46:39.017Z,1.90
2022-09-04T17:49:15.219Z,1.63
2022-09-04T17:51:51.613Z,1.60
2022-09-04T17:54:30.399Z,1.88
2022-09-04T17:57:02.880Z,1.63
2022-09-04T17:59:38.980Z,1.50
2022-09-04T18:02:20.909Z,1.48
2022-09-04T18:04:57.166Z,1.30
2022-09-04T18:08:07.979Z,1.58
2022-09-04T18:10:28.359Z,1.83
2022-09-04T18:13:08.835Z,1.50
2022-09-04T18:16:07.395Z,1.40
2022-09-04T18:18:43.815Z,1.48
2022-09-04T18:21:22.731Z,1.27
2022-09-04T18:24:01.728Z,1.35
2022-09-04T18:26:41.500Z,1.50
2022-09-04T18:32:43.225Z,1.95
2022-09-04T18:37:18.980Z,1.40
2022-09-04T18:37:25.136Z,1.30
2022-09-04T18:39:09.202Z,1.30
2022-09-04T18:48:19.160Z,1.50
2022-09-04T18:50:28.302Z,1.17
2022-09-04T18:50:37.224Z,1.60
2022-09-04T18:51:18.136Z,1.80
2022-09-04T18:53:43.781Z,1.83
2022-09-04T18:56:20.838Z,1.40
2022-09-04T18:58:59.353Z,1.40
2022-09-04T19:01:38.049Z,1.20
2022-09-04T19:04:38.524Z,1.40
2022-09-04T19:07:12.527Z,1.45
2022-09-04T19:10:04.417Z,1.73
2022-09-04T19:12:47.444Z,1.60
2022-09-04T19:15:36.729Z,1.50
2022-09-04T19:18:16.451Z,1.70
2022-09-04T19:20:51.382Z,1.70
2022-09-04T19:23:30.374Z,1.27
2022-09-04T19:26:08.905Z,1.38
2022-09-04T19:28:52.455Z,1.58
2022-09-04T19:31:33.044Z,1.70
2022-09-04T19:35:17.360Z,1.70
2022-09-04T19:41:36.815Z,1.70
2022-09-04T19:46:04.063Z,1.50
2022-09-04T19:46:15.504Z,1.70
2022-09-04T19:46:58.119Z,1.58
2022-09-04T19:52:28.254Z,1.42
2022-09-04T19:53:34.224Z,1.60
2022-09-04T19:55:41.748Z,1.67
2022-09-04T19:58:12.906Z,1.50
2022-09-04T20:00:48.936Z,1.60
2022-09-04T20:03:29.746Z,1.88
2022-09-04T20:06:21.654Z,1.63
2022-09-04T20:08:57.031Z,1.60
2022-09-04T20:11:35.869Z,1.83
2022-09-04T20:14:14.887Z,1.70
2022-09-04T20:17:02.380Z,1.95
2022-09-04T20:19:41.128Z,2.08
2022-09-04T20:22:28.330Z,1.70
2022-09-04T20:25:32.623Z,1.85
2022-09-04T20:28:23.056Z,2.10
2022-09-04T20:31:33.295Z,2.10
2022-09-04T20:34:16.969Z,1.98
2022-09-04T20:36:51.554Z,2.03
2022-09-04T20:39:27.354Z,1.60
2022-09-04T20:42:00.883Z,1.67
2022-09-04T20:44:44.469Z,1.77
2022-09-04T20:52:50.005Z,1.90
2022-09-04T20:52:50.799Z,1.67
2022-09-04T20:53:31.654Z,2.00
2022-09-04T20:56:36.114Z,2.03
2022-09-04T21:03:05.228Z,1.90
2022-09-04T21:03:10.761Z,2.00
2022-09-04T21:05:59.900Z,1.80
2022-09-04T21:08:41.312Z,1.98
2022-09-04T21:11:19.149Z,2.17
2022-09-04T21:14:07.013Z,1.90
2022-09-04T21:16:49.705Z,2.28
2022-09-04T21:19:57.338Z,2.22
2022-09-04T21:22:50.854Z,2.20
2022-09-04T21:25:31.548Z,1.92
2022-09-04T21:28:41.735Z,2.30
2022-09-04T21:31:25.024Z,1.80
2022-09-04T21:34:15.619Z,2.33
2022-09-04T21:36:55.226Z,2.10
2022-09-04T21:40:34.041Z,2.10
2022-09-04T21:43:35.633Z,2.00
2022-09-04T21:46:32.478Z,1.98
2022-09-04T21:49:52.731Z,2.40
2022-09-04T21:53:08.435Z,2.53
2022-09-04T21:58:10.140Z,1.92
2022-09-04T22:02:37.030Z,2.58
2022-09-04T22:02:46.281Z,2.08
2022-09-04T22:05:12.171Z,2.22
2022-09-04T22:12:25.840Z,2.35
2022-09-04T22:13:41.410Z,2.63
2022-09-04T22:14:03.281Z,1.92
2022-09-04T22:16:59.089Z,2.10
2022-09-04T22:20:03.139Z,2.30
2022-09-04T22:23:18.465Z,2.13
2022-09-04T22:26:14.853Z,2.10
2022-09-04T22:29:16.163Z,2.03
2022-09-04T22:32:29.539Z,1.80
2022-09-04T22:35:43.455Z,2.35
2022-09-04T22:38:35.319Z,1.95
2022-09-04T22:41:42.846Z,2.40
2022-09-04T22:44:29.412Z,2.00
2022-09-04T22:47:31.182Z,2.28
2022-09-04T22:50:49.540Z,2.75
2022-09-04T22:54:16.924Z,2.47
2022-09-04T22:56:54.911Z,2.85
2022-09-04T22:59:51.871Z,3.03
2022-09-04T23:07:43.732Z,2.75
2022-09-04T23:13:43.649Z,2.38
2022-09-04T23:13:57.220Z,1.90
2022-09-04T23:16:07.010Z,1.95
2022-09-04T23:21:56.386Z,1.77
2022-09-04T23:26:41.496Z,2.03
2022-09-04T23:26:45.677Z,1.90
2022-09-04T23:28:27.585Z,2.50
2022-09-04T23:31:19.963Z,2.00
2022-09-04T23:34:30.004Z,2.00
2022-09-04T23:37:24.607Z,2.30
2022-09-04T23:40:27.439Z,2.10
2022-09-04T23:43:49.747Z,1.98
2022-09-04T23:46:42.753Z,1.90
2022-09-04T23:49:45.933Z,1.77
2022-09-04T23:52:26.615Z,2.10
2022-09-04T23:55:10.465Z,2.25
2022-09-04T23:57:50.591Z,2.23
